sensor_id;sensor_type;location;lat;lon;timestamp;pressure;altitude;pressure_sealevel;temperature;humidity
75656;BME280;64252;51.094;13.714;2024-01-30T00:00:26;101871.78;;;12.12;41.77
75656;BME280;64252;51.094;13.714;2024-01-30T00:02:52;101865.16;;;11.65;42.89
75656;BME280;64252;51.094;13.714;2024-01-30T00:05:21;101865.88;;;11.74;42.92
75656;BME280;64252;51.094;13.714;2024-01-30T00:07:47;101874.31;;;12.02;42.32
75656;BME280;64252;51.094;13.714;2024-01-30T00:10:13;101871.75;;;11.81;42.56
75656;BME280;64252;51.094;13.714;2024-01-30T00:12:39;101872.28;;;11.86;42.71
75656;BME280;64252;51.094;13.714;2024-01-30T00:15:04;101857.97;;;11.95;42.20
75656;BME280;64252;51.094;13.714;2024-01-30T00:17:33;101864.72;;;11.91;42.32
75656;BME280;64252;51.094;13.714;2024-01-30T00:20:02;101860.06;;;11.98;42.33
75656;BME280;64252;51.094;13.714;2024-01-30T00:22:31;101859.44;;;11.89;42.43
75656;BME280;64252;51.094;13.714;2024-01-30T00:24:57;101862.81;;;11.67;42.84
75656;BME280;64252;51.094;13.714;2024-01-30T00:27:23;101865.84;;;11.46;43.08
75656;BME280;64252;51.094;13.714;2024-01-30T00:29:49;101852.25;;;11.52;43.28
75656;BME280;64252;51.094;13.714;2024-01-30T00:32:14;101857.59;;;11.81;42.57
75656;BME280;64252;51.094;13.714;2024-01-30T00:34:43;101861.78;;;11.59;42.98
75656;BME280;64252;51.094;13.714;2024-01-30T00:37:08;101849.38;;;11.76;42.54
75656;BME280;64252;51.094;13.714;2024-01-30T00:39:34;101858.25;;;11.90;42.22
75656;BME280;64252;51.094;13.714;2024-01-30T00:42:00;101854.41;;;11.70;42.69
75656;BME280;64252;51.094;13.714;2024-01-30T00:44:25;101860.03;;;11.55;42.70
75656;BME280;64252;51.094;13.714;2024-01-30T00:46:51;101852.41;;;11.71;42.62
75656;BME280;64252;51.094;13.714;2024-01-30T00:49:19;101853.53;;;11.26;43.59
75656;BME280;64252;51.094;13.714;2024-01-30T00:51:46;101855.22;;;11.83;42.55
75656;BME280;64252;51.094;13.714;2024-01-30T00:54:14;101857.88;;;11.92;42.25
75656;BME280;64252;51.094;13.714;2024-01-30T00:56:41;101863.69;;;11.55;42.74
75656;BME280;64252;51.094;13.714;2024-01-30T00:59:07;101857.50;;;11.65;42.31
75656;BME280;64252;51.094;13.714;2024-01-30T01:01:32;101858.84;;;11.56;42.81
75656;BME280;64252;51.094;13.714;2024-01-30T01:03:58;101868.22;;;11.44;43.22
75656;BME280;64252;51.094;13.714;2024-01-30T01:06:23;101866.16;;;11.17;43.88
75656;BME280;64252;51.094;13.714;2024-01-30T01:08:49;101866.09;;;11.81;42.64
75656;BME280;64252;51.094;13.714;2024-01-30T01:11:16;101864.25;;;11.61;42.49
75656;BME280;64252;51.094;13.714;2024-01-30T01:13:42;101866.72;;;11.62;42.47
75656;BME280;64252;51.094;13.714;2024-01-30T01:16:07;101861.59;;;11.80;42.01
75656;BME280;64252;51.094;13.714;2024-01-30T01:18:33;101854.50;;;11.86;41.92
75656;BME280;64252;51.094;13.714;2024-01-30T01:20:59;101860.88;;;11.83;41.95
75656;BME280;64252;51.094;13.714;2024-01-30T01:23:25;101863.25;;;11.81;42.09
75656;BME280;64252;51.094;13.714;2024-01-30T01:25:51;101858.91;;;11.43;42.31
75656;BME280;64252;51.094;13.714;2024-01-30T01:28:17;101860.94;;;11.31;42.73
75656;BME280;64252;51.094;13.714;2024-01-30T01:30:42;101853.03;;;11.36;43.11
75656;BME280;64252;51.094;13.714;2024-01-30T01:33:08;101854.97;;;11.20;43.12
75656;BME280;64252;51.094;13.714;2024-01-30T01:35:34;101865.91;;;11.34;43.16
75656;BME280;64252;51.094;13.714;2024-01-30T01:38:00;101857.56;;;11.13;42.61
75656;BME280;64252;51.094;13.714;2024-01-30T01:40:27;101859.00;;;11.47;42.44
75656;BME280;64252;51.094;13.714;2024-01-30T01:42:54;101862.59;;;11.32;42.96
75656;BME280;64252;51.094;13.714;2024-01-30T01:45:20;101860.88;;;11.03;43.10
75656;BME280;64252;51.094;13.714;2024-01-30T01:47:53;101860.09;;;11.30;43.11
75656;BME280;64252;51.094;13.714;2024-01-30T01:50:20;101856.59;;;11.21;42.74
75656;BME280;64252;51.094;13.714;2024-01-30T01:52:47;101849.81;;;11.10;43.40
75656;BME280;64252;51.094;13.714;2024-01-30T01:55:15;101855.47;;;11.10;43.28
75656;BME280;64252;51.094;13.714;2024-01-30T01:57:44;101866.53;;;11.03;43.57
75656;BME280;64252;51.094;13.714;2024-01-30T02:00:10;101854.63;;;11.50;42.59
75656;BME280;64252;51.094;13.714;2024-01-30T02:02:39;101863.75;;;11.43;42.89
75656;BME280;64252;51.094;13.714;2024-01-30T02:05:04;101852.94;;;11.33;42.83
75656;BME280;64252;51.094;13.714;2024-01-30T02:07:30;101856.50;;;11.18;42.98
75656;BME280;64252;51.094;13.714;2024-01-30T02:09:57;101846.06;;;11.06;43.20
75656;BME280;64252;51.094;13.714;2024-01-30T02:12:23;101839.00;;;11.00;43.68
75656;BME280;64252;51.094;13.714;2024-01-30T02:14:50;101838.22;;;11.27;43.23
75656;BME280;64252;51.094;13.714;2024-01-30T02:17:18;101839.34;;;10.98;43.45
75656;BME280;64252;51.094;13.714;2024-01-30T02:19:44;101849.78;;;11.22;43.01
75656;BME280;64252;51.094;13.714;2024-01-30T02:22:10;101840.19;;;10.99;43.30
75656;BME280;64252;51.094;13.714;2024-01-30T02:24:35;101844.16;;;11.10;43.20
75656;BME280;64252;51.094;13.714;2024-01-30T02:27:01;101849.41;;;10.47;44.11
75656;BME280;64252;51.094;13.714;2024-01-30T02:29:27;101847.63;;;10.91;44.00
75656;BME280;64252;51.094;13.714;2024-01-30T02:31:52;101840.91;;;10.84;44.11
75656;BME280;64252;51.094;13.714;2024-01-30T02:34:19;101841.72;;;11.36;43.07
75656;BME280;64252;51.094;13.714;2024-01-30T02:36:45;101841.91;;;11.16;42.92
75656;BME280;64252;51.094;13.714;2024-01-30T02:39:11;101837.69;;;10.97;43.50
75656;BME280;64252;51.094;13.714;2024-01-30T02:41:37;101842.50;;;11.09;43.76
75656;BME280;64252;51.094;13.714;2024-01-30T02:44:03;101841.00;;;11.67;42.05
75656;BME280;64252;51.094;13.714;2024-01-30T02:46:29;101833.38;;;10.76;43.88
75656;BME280;64252;51.094;13.714;2024-01-30T02:48:55;101838.72;;;10.53;44.09
75656;BME280;64252;51.094;13.714;2024-01-30T02:51:21;101837.59;;;10.94;44.04
75656;BME280;64252;51.094;13.714;2024-01-30T02:53:46;101832.88;;;11.66;42.55
75656;BME280;64252;51.094;13.714;2024-01-30T02:56:12;101830.22;;;11.29;42.82
75656;BME280;64252;51.094;13.714;2024-01-30T02:58:42;101828.75;;;11.35;42.56
75656;BME280;64252;51.094;13.714;2024-01-30T03:01:07;101837.31;;;11.79;41.97
75656;BME280;64252;51.094;13.714;2024-01-30T03:03:33;101836.56;;;11.26;42.96
75656;BME280;64252;51.094;13.714;2024-01-30T03:06:02;101823.63;;;10.73;43.57
75656;BME280;64252;51.094;13.714;2024-01-30T03:08:29;101832.47;;;10.72;44.38
75656;BME280;64252;51.094;13.714;2024-01-30T03:10:55;101829.25;;;10.85;43.61
75656;BME280;64252;51.094;13.714;2024-01-30T03:13:21;101837.91;;;10.40;45.00
75656;BME280;64252;51.094;13.714;2024-01-30T03:15:48;101835.25;;;10.96;43.75
75656;BME280;64252;51.094;13.714;2024-01-30T03:18:14;101832.59;;;10.63;44.80
75656;BME280;64252;51.094;13.714;2024-01-30T03:20:40;101825.00;;;10.91;43.92
75656;BME280;64252;51.094;13.714;2024-01-30T03:23:05;101823.13;;;10.95;43.33
75656;BME280;64252;51.094;13.714;2024-01-30T03:25:31;101814.09;;;11.18;43.21
75656;BME280;64252;51.094;13.714;2024-01-30T03:27:57;101821.97;;;11.24;42.96
75656;BME280;64252;51.094;13.714;2024-01-30T03:30:22;101819.66;;;11.02;43.65
75656;BME280;64252;51.094;13.714;2024-01-30T03:32:48;101826.47;;;11.13;43.26
75656;BME280;64252;51.094;13.714;2024-01-30T03:35:14;101817.50;;;11.23;43.27
75656;BME280;64252;51.094;13.714;2024-01-30T03:37:40;101826.44;;;11.25;42.88
75656;BME280;64252;51.094;13.714;2024-01-30T03:40:06;101826.53;;;11.01;43.83
75656;BME280;64252;51.094;13.714;2024-01-30T03:42:32;101826.81;;;11.24;43.15
75656;BME280;64252;51.094;13.714;2024-01-30T03:44:58;101814.56;;;11.20;43.26
75656;BME280;64252;51.094;13.714;2024-01-30T03:47:24;101821.97;;;11.24;43.25
75656;BME280;64252;51.094;13.714;2024-01-30T03:49:49;101826.81;;;11.24;43.19
75656;BME280;64252;51.094;13.714;2024-01-30T03:52:15;101825.19;;;11.11;43.29
75656;BME280;64252;51.094;13.714;2024-01-30T03:54:40;101823.03;;;10.80;44.18
75656;BME280;64252;51.094;13.714;2024-01-30T03:57:06;101816.47;;;10.51;44.79
75656;BME280;64252;51.094;13.714;2024-01-30T03:59:32;101821.25;;;11.27;43.14
75656;BME280;64252;51.094;13.714;2024-01-30T04:01:58;101818.16;;;11.32;43.03
75656;BME280;64252;51.094;13.714;2024-01-30T04:04:23;101823.31;;;11.02;43.69
75656;BME280;64252;51.094;13.714;2024-01-30T04:06:49;101819.91;;;10.45;44.96
75656;BME280;64252;51.094;13.714;2024-01-30T04:09:15;101819.91;;;11.09;43.52
75656;BME280;64252;51.094;13.714;2024-01-30T04:11:41;101813.50;;;11.24;42.95
75656;BME280;64252;51.094;13.714;2024-01-30T04:14:08;101814.25;;;11.09;43.59
75656;BME280;64252;51.094;13.714;2024-01-30T04:16:34;101805.34;;;11.23;43.08
75656;BME280;64252;51.094;13.714;2024-01-30T04:19:00;101807.25;;;11.19;42.84
75656;BME280;64252;51.094;13.714;2024-01-30T04:21:25;101811.72;;;10.92;43.92
75656;BME280;64252;51.094;13.714;2024-01-30T04:23:51;101810.34;;;11.14;43.14
75656;BME280;64252;51.094;13.714;2024-01-30T04:26:17;101812.78;;;10.75;44.32
75656;BME280;64252;51.094;13.714;2024-01-30T04:28:46;101819.50;;;10.83;43.85
75656;BME280;64252;51.094;13.714;2024-01-30T04:31:12;101815.25;;;10.65;44.12
75656;BME280;64252;51.094;13.714;2024-01-30T04:33:37;101813.31;;;11.05;43.35
75656;BME280;64252;51.094;13.714;2024-01-30T04:36:03;101812.97;;;10.94;43.26
75656;BME280;64252;51.094;13.714;2024-01-30T04:38:30;101816.16;;;11.05;43.55
75656;BME280;64252;51.094;13.714;2024-01-30T04:40:55;101809.69;;;10.92;43.77
75656;BME280;64252;51.094;13.714;2024-01-30T04:43:21;101806.31;;;10.87;43.90
75656;BME280;64252;51.094;13.714;2024-01-30T04:45:47;101812.19;;;10.82;43.85
75656;BME280;64252;51.094;13.714;2024-01-30T04:48:13;101803.72;;;10.70;44.45
75656;BME280;64252;51.094;13.714;2024-01-30T04:50:39;101802.50;;;10.95;43.95
75656;BME280;64252;51.094;13.714;2024-01-30T04:53:04;101807.91;;;11.00;43.31
75656;BME280;64252;51.094;13.714;2024-01-30T04:55:30;101809.50;;;11.13;43.08
75656;BME280;64252;51.094;13.714;2024-01-30T04:57:56;101802.44;;;11.19;42.94
75656;BME280;64252;51.094;13.714;2024-01-30T05:00:21;101800.75;;;10.90;43.51
75656;BME280;64252;51.094;13.714;2024-01-30T05:02:47;101806.88;;;10.80;43.93
75656;BME280;64252;51.094;13.714;2024-01-30T05:05:12;101807.06;;;10.23;44.86
75656;BME280;64252;51.094;13.714;2024-01-30T05:07:41;101809.16;;;10.63;44.19
75656;BME280;64252;51.094;13.714;2024-01-30T05:10:07;101799.44;;;11.00;43.64
75656;BME280;64252;51.094;13.714;2024-01-30T05:12:33;101802.56;;;10.71;44.05
75656;BME280;64252;51.094;13.714;2024-01-30T05:14:59;101802.09;;;11.09;43.74
75656;BME280;64252;51.094;13.714;2024-01-30T05:17:25;101806.00;;;11.04;43.47
75656;BME280;64252;51.094;13.714;2024-01-30T05:19:51;101803.28;;;10.68;44.71
75656;BME280;64252;51.094;13.714;2024-01-30T05:22:16;101799.63;;;10.55;44.72
75656;BME280;64252;51.094;13.714;2024-01-30T05:24:44;101807.66;;;10.29;45.00
75656;BME280;64252;51.094;13.714;2024-01-30T05:27:10;101795.25;;;10.70;44.69
75656;BME280;64252;51.094;13.714;2024-01-30T05:29:36;101796.69;;;10.64;44.60
75656;BME280;64252;51.094;13.714;2024-01-30T05:32:03;101801.34;;;10.84;44.32
75656;BME280;64252;51.094;13.714;2024-01-30T05:34:29;101802.72;;;11.02;43.53
75656;BME280;64252;51.094;13.714;2024-01-30T05:36:54;101798.19;;;11.13;43.63
75656;BME280;64252;51.094;13.714;2024-01-30T05:39:20;101797.00;;;10.74;44.05
75656;BME280;64252;51.094;13.714;2024-01-30T05:41:46;101798.75;;;10.79;44.38
75656;BME280;64252;51.094;13.714;2024-01-30T05:44:11;101801.34;;;10.84;44.24
75656;BME280;64252;51.094;13.714;2024-01-30T05:46:37;101798.75;;;10.91;44.45
75656;BME280;64252;51.094;13.714;2024-01-30T05:49:03;101798.66;;;10.75;44.81
75656;BME280;64252;51.094;13.714;2024-01-30T05:51:29;101798.00;;;10.54;44.85
75656;BME280;64252;51.094;13.714;2024-01-30T05:53:54;101798.75;;;10.91;44.01
75656;BME280;64252;51.094;13.714;2024-01-30T05:56:20;101796.44;;;10.69;44.82
75656;BME280;64252;51.094;13.714;2024-01-30T05:58:46;101795.03;;;10.63;45.01
75656;BME280;64252;51.094;13.714;2024-01-30T06:01:11;101797.78;;;10.99;44.35
75656;BME280;64252;51.094;13.714;2024-01-30T06:03:37;101795.25;;;10.70;44.42
75656;BME280;64252;51.094;13.714;2024-01-30T06:06:04;101796.56;;;11.12;43.59
75656;BME280;64252;51.094;13.714;2024-01-30T06:08:30;101800.22;;;10.48;44.36
75656;BME280;64252;51.094;13.714;2024-01-30T06:10:55;101797.84;;;10.02;46.63
75656;BME280;64252;51.094;13.714;2024-01-30T06:13:21;101803.03;;;10.73;44.72
75656;BME280;64252;51.094;13.714;2024-01-30T06:15:46;101798.56;;;9.66;46.22
75656;BME280;64252;51.094;13.714;2024-01-30T06:18:12;101800.16;;;10.97;44.24
75656;BME280;64252;51.094;13.714;2024-01-30T06:20:38;101794.94;;;10.35;46.01
75656;BME280;64252;51.094;13.714;2024-01-30T06:23:04;101798.81;;;10.54;45.28
75656;BME280;64252;51.094;13.714;2024-01-30T06:25:30;101800.22;;;10.48;44.89
75656;BME280;64252;51.094;13.714;2024-01-30T06:27:55;101804.16;;;10.96;44.47
75656;BME280;64252;51.094;13.714;2024-01-30T06:30:22;101797.75;;;10.23;45.60
75656;BME280;64252;51.094;13.714;2024-01-30T06:32:48;101801.63;;;10.18;46.25
75656;BME280;64252;51.094;13.714;2024-01-30T06:35:13;101804.53;;;10.82;44.61
75656;BME280;64252;51.094;13.714;2024-01-30T06:37:39;101792.25;;;10.26;45.89
75656;BME280;64252;51.094;13.714;2024-01-30T06:40:05;101801.88;;;10.49;44.44
75656;BME280;64252;51.094;13.714;2024-01-30T06:42:31;101796.94;;;10.34;45.81
75656;BME280;64252;51.094;13.714;2024-01-30T06:44:57;101795.63;;;11.08;43.67
75656;BME280;64252;51.094;13.714;2024-01-30T06:47:22;101802.44;;;10.06;45.99
75656;BME280;64252;51.094;13.714;2024-01-30T06:49:48;101791.69;;;10.85;44.48
75656;BME280;64252;51.094;13.714;2024-01-30T06:52:14;101787.22;;;11.24;43.70
75656;BME280;64252;51.094;13.714;2024-01-30T06:54:39;101797.84;;;10.75;44.48
75656;BME280;64252;51.094;13.714;2024-01-30T06:57:05;101789.56;;;11.22;43.74
75656;BME280;64252;51.094;13.714;2024-01-30T06:59:34;101801.50;;;11.15;44.04
75656;BME280;64252;51.094;13.714;2024-01-30T07:02:00;101800.06;;;11.21;44.03
75656;BME280;64252;51.094;13.714;2024-01-30T07:04:26;101798.34;;;11.05;43.57
75656;BME280;64252;51.094;13.714;2024-01-30T07:06:51;101801.09;;;11.01;44.08
75656;BME280;64252;51.094;13.714;2024-01-30T07:09:19;101804.34;;;11.03;44.19
75656;BME280;64252;51.094;13.714;2024-01-30T07:11:45;101803.25;;;11.48;43.15
75656;BME280;64252;51.094;13.714;2024-01-30T07:14:11;101796.97;;;11.26;43.89
75656;BME280;64252;51.094;13.714;2024-01-30T07:16:36;101804.22;;;10.72;44.64
75656;BME280;64252;51.094;13.714;2024-01-30T07:19:02;101798.34;;;10.52;45.03
75656;BME280;64252;51.094;13.714;2024-01-30T07:21:28;101804.25;;;10.35;45.63
75656;BME280;64252;51.094;13.714;2024-01-30T07:23:54;101800.72;;;10.26;46.02
75656;BME280;64252;51.094;13.714;2024-01-30T07:26:20;101794.19;;;10.74;45.07
75656;BME280;64252;51.094;13.714;2024-01-30T07:28:46;101801.38;;;10.60;45.06
75656;BME280;64252;51.094;13.714;2024-01-30T07:31:12;101802.06;;;10.81;44.16
75656;BME280;64252;51.094;13.714;2024-01-30T07:33:37;101799.38;;;10.72;44.28
75656;BME280;64252;51.094;13.714;2024-01-30T07:36:03;101795.16;;;10.66;44.92
75656;BME280;64252;51.094;13.714;2024-01-30T07:38:31;101795.31;;;10.97;44.09
75656;BME280;64252;51.094;13.714;2024-01-30T07:40:57;101793.69;;;11.24;43.60
75656;BME280;64252;51.094;13.714;2024-01-30T07:43:23;101800.47;;;11.35;43.08
75656;BME280;64252;51.094;13.714;2024-01-30T07:45:48;101804.69;;;11.41;43.10
75656;BME280;64252;51.094;13.714;2024-01-30T07:48:14;101803.53;;;10.38;45.41
75656;BME280;64252;51.094;13.714;2024-01-30T07:50:39;101796.28;;;11.73;42.52
75656;BME280;64252;51.094;13.714;2024-01-30T07:53:06;101794.44;;;12.08;41.91
75656;BME280;64252;51.094;13.714;2024-01-30T07:55:32;101803.34;;;11.79;42.51
75656;BME280;64252;51.094;13.714;2024-01-30T07:57:59;101797.53;;;12.03;42.15
75656;BME280;64252;51.094;13.714;2024-01-30T08:00:25;101797.78;;;10.99;43.35
75656;BME280;64252;51.094;13.714;2024-01-30T08:02:51;101801.53;;;12.02;42.47
75656;BME280;64252;51.094;13.714;2024-01-30T08:05:20;101797.06;;;12.01;42.03
75656;BME280;64252;51.094;13.714;2024-01-30T08:10:43;101798.16;;;12.12;41.67
75656;BME280;64252;51.094;13.714;2024-01-30T08:13:09;101797.69;;;11.79;42.26
75656;BME280;64252;51.094;13.714;2024-01-30T08:15:34;101792.63;;;12.66;40.76
75656;BME280;64252;51.094;13.714;2024-01-30T08:18:00;101792.31;;;12.37;41.18
75656;BME280;64252;51.094;13.714;2024-01-30T08:20:26;101801.31;;;12.93;40.14
75656;BME280;64252;51.094;13.714;2024-01-30T08:22:52;101796.34;;;13.05;40.12
75656;BME280;64252;51.094;13.714;2024-01-30T08:25:18;101797.09;;;13.02;39.80
75656;BME280;64252;51.094;13.714;2024-01-30T08:27:44;101792.81;;;12.58;40.82
75656;BME280;64252;51.094;13.714;2024-01-30T08:30:10;101797.31;;;13.51;39.04
75656;BME280;64252;51.094;13.714;2024-01-30T08:32:36;101789.63;;;13.52;38.93
75656;BME280;64252;51.094;13.714;2024-01-30T08:35:04;101802.47;;;12.72;40.47
75656;BME280;64252;51.094;13.714;2024-01-30T08:37:30;101801.09;;;13.17;39.48
75656;BME280;64252;51.094;13.714;2024-01-30T08:39:56;101799.38;;;13.51;38.50
75656;BME280;64252;51.094;13.714;2024-01-30T08:42:22;101796.84;;;13.46;39.07
75656;BME280;64252;51.094;13.714;2024-01-30T08:44:48;101794.06;;;14.14;37.98
75656;BME280;64252;51.094;13.714;2024-01-30T08:47:15;101794.28;;;13.22;39.39
75656;BME280;64252;51.094;13.714;2024-01-30T08:49:43;101802.16;;;13.70;38.60
75656;BME280;64252;51.094;13.714;2024-01-30T08:52:12;101804.28;;;13.35;39.20
75656;BME280;64252;51.094;13.714;2024-01-30T08:54:37;101815.84;;;14.06;38.12
75656;BME280;64252;51.094;13.714;2024-01-30T08:57:03;101809.75;;;13.85;38.06
75656;BME280;64252;51.094;13.714;2024-01-30T08:59:29;101812.75;;;13.31;39.14
75656;BME280;64252;51.094;13.714;2024-01-30T09:01:55;101819.13;;;13.67;38.34
75656;BME280;64252;51.094;13.714;2024-01-30T09:04:27;101821.53;;;13.65;38.66
75656;BME280;64252;51.094;13.714;2024-01-30T09:06:52;101822.41;;;14.33;37.64
75656;BME280;64252;51.094;13.714;2024-01-30T09:09:18;101823.03;;;13.39;38.51
75656;BME280;64252;51.094;13.714;2024-01-30T09:11:44;101820.69;;;14.29;37.69
75656;BME280;64252;51.094;13.714;2024-01-30T09:14:10;101827.88;;;14.23;37.66
75656;BME280;64252;51.094;13.714;2024-01-30T09:16:37;101841.75;;;13.25;39.09
75656;BME280;64252;51.094;13.714;2024-01-30T09:19:02;101835.19;;;13.21;39.78
75656;BME280;64252;51.094;13.714;2024-01-30T09:21:28;101835.06;;;13.13;39.20
75656;BME280;64252;51.094;13.714;2024-01-30T09:23:54;101821.38;;;13.38;39.17
75656;BME280;64252;51.094;13.714;2024-01-30T09:26:20;101819.13;;;13.47;38.64
75656;BME280;64252;51.094;13.714;2024-01-30T09:28:46;101816.53;;;12.85;40.27
75656;BME280;64252;51.094;13.714;2024-01-30T09:31:12;101820.44;;;13.31;39.27
75656;BME280;64252;51.094;13.714;2024-01-30T09:33:38;101817.50;;;12.92;39.44
75656;BME280;64252;51.094;13.714;2024-01-30T09:36:05;101816.22;;;14.05;37.60
75656;BME280;64252;51.094;13.714;2024-01-30T09:38:31;101818.00;;;13.71;38.37
75656;BME280;64252;51.094;13.714;2024-01-30T09:41:01;101806.03;;;12.85;39.59
75656;BME280;64252;51.094;13.714;2024-01-30T09:43:32;101812.63;;;13.08;39.46
75656;BME280;64252;51.094;13.714;2024-01-30T09:45:59;101804.00;;;13.21;39.63
75656;BME280;64252;51.094;13.714;2024-01-30T09:48:26;101806.47;;;13.60;39.09
75656;BME280;64252;51.094;13.714;2024-01-30T09:50:53;101800.34;;;13.39;38.88
75656;BME280;64252;51.094;13.714;2024-01-30T09:53:19;101783.59;;;12.61;39.86
75656;BME280;64252;51.094;13.714;2024-01-30T09:55:45;101796.91;;;13.30;39.09
75656;BME280;64252;51.094;13.714;2024-01-30T09:58:12;101798.38;;;13.24;38.85
75656;BME280;64252;51.094;13.714;2024-01-30T10:00:37;101795.34;;;13.13;39.25
75656;BME280;64252;51.094;13.714;2024-01-30T10:03:03;101790.94;;;13.35;39.52
75656;BME280;64252;51.094;13.714;2024-01-30T10:05:31;101797.78;;;13.53;38.49
75656;BME280;64252;51.094;13.714;2024-01-30T10:07:59;101793.41;;;13.56;38.66
75656;BME280;64252;51.094;13.714;2024-01-30T10:10:25;101790.22;;;13.03;39.45
75656;BME280;64252;51.094;13.714;2024-01-30T10:12:51;101784.81;;;12.79;39.36
75656;BME280;64252;51.094;13.714;2024-01-30T10:15:17;101790.75;;;13.89;38.11
75656;BME280;64252;51.094;13.714;2024-01-30T10:17:44;101776.97;;;13.46;38.35
75656;BME280;64252;51.094;13.714;2024-01-30T10:20:11;101779.50;;;13.51;38.28
75656;BME280;64252;51.094;13.714;2024-01-30T10:22:36;101784.41;;;14.68;36.82
75656;BME280;64252;51.094;13.714;2024-01-30T10:25:02;101783.56;;;13.73;37.90
75656;BME280;64252;51.094;13.714;2024-01-30T10:30:39;101771.44;;;13.76;37.53
75656;BME280;64252;51.094;13.714;2024-01-30T10:33:28;101778.50;;;13.62;38.58
75656;BME280;64252;51.094;13.714;2024-01-30T10:36:03;101772.75;;;13.59;38.36
75656;BME280;64252;51.094;13.714;2024-01-30T10:38:31;101776.44;;;13.82;37.80
75656;BME280;64252;51.094;13.714;2024-01-30T10:41:01;101766.66;;;14.25;37.34
75656;BME280;64252;51.094;13.714;2024-01-30T10:43:36;101764.66;;;14.03;38.28
75656;BME280;64252;51.094;13.714;2024-01-30T10:46:17;101764.88;;;13.72;38.03
75656;BME280;64252;51.094;13.714;2024-01-30T10:48:43;101758.41;;;14.69;36.98
75656;BME280;64252;51.094;13.714;2024-01-30T10:51:13;101757.22;;;13.53;38.60
75656;BME280;64252;51.094;13.714;2024-01-30T10:53:39;101750.75;;;14.21;37.77
75656;BME280;64252;51.094;13.714;2024-01-30T10:56:08;101757.28;;;13.56;38.38
75656;BME280;64252;51.094;13.714;2024-01-30T10:58:33;101750.81;;;13.56;38.09
75656;BME280;64252;51.094;13.714;2024-01-30T11:00:59;101747.84;;;13.72;38.47
75656;BME280;64252;51.094;13.714;2024-01-30T11:03:26;101738.19;;;14.22;37.27
75656;BME280;64252;51.094;13.714;2024-01-30T11:05:52;101742.47;;;14.35;36.75
75656;BME280;64252;51.094;13.714;2024-01-30T11:08:24;101738.66;;;14.50;36.97
75656;BME280;64252;51.094;13.714;2024-01-30T11:10:56;101741.94;;;15.12;35.47
75656;BME280;64252;51.094;13.714;2024-01-30T11:13:26;101724.06;;;14.52;37.07
75656;BME280;64252;51.094;13.714;2024-01-30T11:15:52;101731.84;;;14.32;36.87
75656;BME280;64252;51.094;13.714;2024-01-30T11:18:24;101724.06;;;14.02;37.25
75656;BME280;64252;51.094;13.714;2024-01-30T11:20:51;101738.88;;;14.15;37.67
75656;BME280;64252;51.094;13.714;2024-01-30T11:23:18;101733.47;;;14.33;37.34
75656;BME280;64252;51.094;13.714;2024-01-30T11:25:44;101727.97;;;15.00;36.77
75656;BME280;64252;51.094;13.714;2024-01-30T11:28:14;101721.56;;;13.97;38.14
75656;BME280;64252;51.094;13.714;2024-01-30T11:30:44;101730.72;;;14.14;38.20
75656;BME280;64252;51.094;13.714;2024-01-30T11:33:11;101721.22;;;13.80;38.36
75656;BME280;64252;51.094;13.714;2024-01-30T11:35:39;101717.38;;;13.46;38.85
75656;BME280;64252;51.094;13.714;2024-01-30T11:38:06;101709.56;;;13.62;38.75
75656;BME280;64252;51.094;13.714;2024-01-30T11:40:32;101723.97;;;14.74;37.03
75656;BME280;64252;51.094;13.714;2024-01-30T11:43:00;101711.97;;;14.58;37.33
75656;BME280;64252;51.094;13.714;2024-01-30T11:45:30;101728.56;;;15.49;35.70
75656;BME280;64252;51.094;13.714;2024-01-30T11:47:57;101719.84;;;14.68;36.65
75656;BME280;64252;51.094;13.714;2024-01-30T11:50:24;101709.94;;;13.83;38.06
75656;BME280;64252;51.094;13.714;2024-01-30T11:52:50;101703.56;;;14.39;37.00
75656;BME280;64252;51.094;13.714;2024-01-30T11:55:16;101705.81;;;14.03;37.82
75656;BME280;64252;51.094;13.714;2024-01-30T11:57:42;101706.72;;;14.34;37.15
75656;BME280;64252;51.094;13.714;2024-01-30T12:00:17;101710.16;;;14.20;37.58
75656;BME280;64252;51.094;13.714;2024-01-30T12:02:44;101695.72;;;14.06;37.57
75656;BME280;64252;51.094;13.714;2024-01-30T12:05:14;101695.38;;;13.62;38.24
75656;BME280;64252;51.094;13.714;2024-01-30T12:07:40;101700.41;;;13.95;37.49
75656;BME280;64252;51.094;13.714;2024-01-30T12:10:08;101695.44;;;13.88;37.89
75656;BME280;64252;51.094;13.714;2024-01-30T12:12:35;101705.16;;;14.14;37.48
75656;BME280;64252;51.094;13.714;2024-01-30T12:15:01;101692.69;;;14.74;36.45
75656;BME280;64252;51.094;13.714;2024-01-30T12:17:29;101688.09;;;14.36;37.10
75656;BME280;64252;51.094;13.714;2024-01-30T12:22:38;101686.38;;;14.05;37.55
75656;BME280;64252;51.094;13.714;2024-01-30T12:25:08;101686.69;;;14.00;37.57
75656;BME280;64252;51.094;13.714;2024-01-30T12:27:34;101680.19;;;13.51;38.28
75656;BME280;64252;51.094;13.714;2024-01-30T12:30:01;101687.28;;;13.87;38.14
75656;BME280;64252;51.094;13.714;2024-01-30T12:32:29;101674.91;;;14.25;37.03
75656;BME280;64252;51.094;13.714;2024-01-30T12:34:55;101687.13;;;15.15;35.43
75656;BME280;64252;51.094;13.714;2024-01-30T12:37:22;101683.44;;;14.51;36.23
75656;BME280;64252;51.094;13.714;2024-01-30T12:39:51;101681.25;;;14.15;37.29
75656;BME280;64252;51.094;13.714;2024-01-30T12:42:19;101678.94;;;14.24;37.02
75656;BME280;64252;51.094;13.714;2024-01-30T12:44:46;101689.31;;;14.13;37.05